createdAt,value
2022-08-27T00:01:41.871Z,11.77
2022-08-27T00:04:09.202Z,13.98
2022-08-27T00:06:36.731Z,11.13
2022-08-27T00:09:05.762Z,9.85
2022-08-27T00:11:33.427Z,10.80
2022-08-27T00:14:01.874Z,10.15
2022-08-27T00:16:37.074Z,9.43
2022-08-27T00:19:04.959Z,10.02
2022-08-27T00:21:33.279Z,10.15
2022-08-27T00:24:01.406Z,10.40
2022-08-27T00:26:29.385Z,10.27
2022-08-27T00:28:57.001Z,10.65
2022-08-27T00:31:27.469Z,10.65
2022-08-27T00:33:56.223Z,9.93
2022-08-27T00:36:24.589Z,9.40
2022-08-27T00:38:53.200Z,9.23
2022-08-27T00:41:22.374Z,9.45
2022-08-27T00:44:01.941Z,9.88
2022-08-27T00:46:52.324Z,10.13
2022-08-27T00:49:24.192Z,10.15
2022-08-27T00:52:03.137Z,9.93
2022-08-27T00:54:30.504Z,9.82
2022-08-27T00:56:59.650Z,10.82
2022-08-27T00:59:32.952Z,11.07
2022-08-27T01:02:19.083Z,10.90
2022-08-27T01:04:51.655Z,10.18
2022-08-27T01:07:20.073Z,10.48
2022-08-27T01:09:50.033Z,10.95
2022-08-27T01:12:18.021Z,11.50
2022-08-27T01:14:47.188Z,11.25
2022-08-27T01:17:16.087Z,11.95
2022-08-27T01:19:48.672Z,11.55
2022-08-27T01:22:27.552Z,11.48
2022-08-27T01:24:58.543Z,10.45
2022-08-27T01:27:28.997Z,10.27
2022-08-27T01:29:56.743Z,10.60
2022-08-27T01:32:29.209Z,10.40
2022-08-27T01:34:57.668Z,11.18
2022-08-27T01:37:26.919Z,11.20
2022-08-27T01:39:56.420Z,10.75
2022-08-27T01:42:33.590Z,11.10
2022-08-27T01:45:05.689Z,10.85
2022-08-27T01:47:35.122Z,10.18
2022-08-27T01:50:09.031Z,10.68
2022-08-27T01:52:36.453Z,11.20
2022-08-27T01:55:07.336Z,10.10
2022-08-27T01:57:38.072Z,9.60
2022-08-27T02:00:10.045Z,9.75
2022-08-27T02:02:40.807Z,9.60
2022-08-27T02:05:09.564Z,10.00
2022-08-27T02:07:38.678Z,9.20
2022-08-27T02:10:07.805Z,10.85
2022-08-27T02:12:35.275Z,11.02
2022-08-27T02:15:03.100Z,11.20
2022-08-27T02:17:30.387Z,9.80
2022-08-27T02:19:57.695Z,9.95
2022-08-27T02:22:25.244Z,11.05
2022-08-27T02:24:52.605Z,10.65
2022-08-27T02:27:21.495Z,12.27
2022-08-27T02:29:49.820Z,11.90
2022-08-27T02:32:17.776Z,11.07
2022-08-27T02:35:00.402Z,11.25
2022-08-27T02:37:28.232Z,11.10
2022-08-27T02:39:55.625Z,10.77
2022-08-27T02:42:23.135Z,10.15
2022-08-27T02:44:50.602Z,10.73
2022-08-27T02:47:17.888Z,11.02
2022-08-27T02:49:45.169Z,10.80
2022-08-27T02:52:12.953Z,10.88
2022-08-27T02:54:40.814Z,10.52
2022-08-27T02:57:08.217Z,9.90
2022-08-27T02:59:35.806Z,11.27
2022-08-27T03:02:03.604Z,8.98
2022-08-27T03:04:31.064Z,8.90
2022-08-27T03:06:58.328Z,10.02
2022-08-27T03:09:25.674Z,10.07
2022-08-27T03:11:53.861Z,9.60
2022-08-27T03:14:21.325Z,9.60
2022-08-27T03:16:48.592Z,9.70
2022-08-27T03:19:19.863Z,9.77
2022-08-27T03:21:54.664Z,10.02
2022-08-27T03:24:22.341Z,9.15
2022-08-27T03:26:52.710Z,8.93
2022-08-27T03:29:21.499Z,9.63
2022-08-27T03:31:48.976Z,9.68
2022-08-27T03:34:19.865Z,9.73
2022-08-27T03:36:49.086Z,9.55
2022-08-27T03:39:16.415Z,10.20
2022-08-27T03:41:55.355Z,9.82
2022-08-27T03:44:26.057Z,9.48
2022-08-27T03:46:54.072Z,10.50
2022-08-27T03:49:22.617Z,9.75
2022-08-27T03:51:52.427Z,10.90
2022-08-27T03:54:20.241Z,10.60
2022-08-27T03:56:47.584Z,10.43
2022-08-27T03:59:15.970Z,9.95
2022-08-27T04:01:44.818Z,10.40
2022-08-27T04:04:13.248Z,11.13
2022-08-27T04:06:41.372Z,10.65
2022-08-27T04:09:08.787Z,11.00
2022-08-27T04:11:36.532Z,10.73
2022-08-27T04:14:07.599Z,9.85
2022-08-27T04:16:48.769Z,10.27
2022-08-27T04:19:21.979Z,10.20
2022-08-27T04:21:51.404Z,10.63
2022-08-27T04:24:18.681Z,10.15
2022-08-27T04:26:47.727Z,9.02
2022-08-27T04:29:15.041Z,10.35
2022-08-27T04:31:43.384Z,10.10
2022-08-27T04:34:10.969Z,9.55
2022-08-27T04:36:38.243Z,9.38
2022-08-27T04:39:05.610Z,9.75
2022-08-27T04:41:33.653Z,10.07
2022-08-27T04:44:07.153Z,10.02
2022-08-27T04:46:37.882Z,10.15
2022-08-27T04:49:11.786Z,9.75
2022-08-27T04:51:40.361Z,8.18
2022-08-27T04:54:09.024Z,8.77
2022-08-27T04:56:37.229Z,8.95
2022-08-27T04:59:06.848Z,8.43
2022-08-27T05:01:34.344Z,8.63
2022-08-27T05:04:01.667Z,9.52
2022-08-27T05:06:29.086Z,8.27
2022-08-27T05:08:56.921Z,8.73
2022-08-27T05:11:27.214Z,8.70
2022-08-27T05:13:55.430Z,9.20
2022-08-27T05:16:23.831Z,8.70
2022-08-27T05:18:52.801Z,8.93
2022-08-27T05:21:30.511Z,8.57
2022-08-27T05:23:59.792Z,8.35
2022-08-27T05:26:28.324Z,8.73
2022-08-27T05:28:56.015Z,7.85
2022-08-27T05:31:23.862Z,8.95
2022-08-27T05:33:51.201Z,8.25
2022-08-27T05:36:26.366Z,9.43
2022-08-27T05:38:55.574Z,8.65
2022-08-27T05:41:25.646Z,8.43
2022-08-27T05:44:18.452Z,9.52
2022-08-27T05:46:51.988Z,10.23
2022-08-27T05:49:19.257Z,9.45
2022-08-27T05:51:46.551Z,9.27
2022-08-27T05:54:19.582Z,9.98
2022-08-27T05:56:49.716Z,9.05
2022-08-27T05:59:36.624Z,10.23
2022-08-27T06:02:06.315Z,10.13
2022-08-27T06:04:33.926Z,10.05
2022-08-27T06:07:01.239Z,9.02
2022-08-27T06:09:29.761Z,10.45
2022-08-27T06:11:58.626Z,10.43
2022-08-27T06:14:26.600Z,11.10
2022-08-27T06:16:54.257Z,10.85
2022-08-27T06:19:22.014Z,10.50
2022-08-27T06:22:01.292Z,11.02
2022-08-27T06:24:36.776Z,11.18
2022-08-27T06:27:04.240Z,10.73
2022-08-27T06:29:31.516Z,11.95
2022-08-27T06:31:59.027Z,11.93
2022-08-27T06:34:26.385Z,12.07
2022-08-27T06:36:54.491Z,11.40
2022-08-27T06:39:21.781Z,10.85
2022-08-27T06:41:50.371Z,12.60
2022-08-27T06:44:22.253Z,11.65
2022-08-27T06:46:49.613Z,11.77
2022-08-27T06:49:16.924Z,11.82
2022-08-27T06:51:47.011Z,12.98
2022-08-27T06:54:16.097Z,15.93
2022-08-27T06:56:44.653Z,17.17
2022-08-27T06:59:15.698Z,13.63
2022-08-27T07:01:46.699Z,13.52
2022-08-27T07:04:19.384Z,13.33
2022-08-27T07:06:46.613Z,14.32
2022-08-27T07:09:14.356Z,14.88
2022-08-27T07:11:41.613Z,12.60
2022-08-27T07:14:09.592Z,13.50
2022-08-27T07:16:37.682Z,12.77
2022-08-27T07:19:08.348Z,14.32
2022-08-27T07:21:36.350Z,14.35
2022-08-27T07:24:05.628Z,14.77
2022-08-27T07:26:38.878Z,15.60
2022-08-27T07:29:08.812Z,15.48
2022-08-27T07:31:36.751Z,14.20
2022-08-27T07:34:05.884Z,15.00
2022-08-27T07:36:34.431Z,15.63
2022-08-27T07:39:02.154Z,14.20
2022-08-27T07:41:31.946Z,14.45
2022-08-27T07:44:21.199Z,16.35
2022-08-27T07:46:58.799Z,14.98
2022-08-27T07:49:28.403Z,15.73
2022-08-27T07:51:55.961Z,16.00
2022-08-27T07:54:23.604Z,16.88
2022-08-27T07:56:55.422Z,15.90
2022-08-27T07:59:26.222Z,16.58
2022-08-27T08:01:56.189Z,16.88
2022-08-27T08:04:24.260Z,17.85
2022-08-27T08:06:52.243Z,18.08
2022-08-27T08:09:22.295Z,17.55
2022-08-27T08:11:50.580Z,16.33
2022-08-27T08:14:19.106Z,16.65
2022-08-27T08:16:46.676Z,17.02
2022-08-27T08:19:14.000Z,17.33
2022-08-27T08:21:41.719Z,16.00
2022-08-27T08:24:09.156Z,16.23
2022-08-27T08:26:36.547Z,16.55
2022-08-27T08:29:05.286Z,15.45
2022-08-27T08:31:33.019Z,16.45
2022-08-27T08:34:00.914Z,16.25
2022-08-27T08:36:28.245Z,17.85
2022-08-27T08:38:55.500Z,18.45
2022-08-27T08:41:31.026Z,18.42
2022-08-27T08:44:04.775Z,15.75
2022-08-27T08:46:58.663Z,15.23
2022-08-27T08:49:56.189Z,14.57
2022-08-27T08:52:35.674Z,14.65
2022-08-27T08:55:14.972Z,14.98
2022-08-27T08:58:17.360Z,15.80
2022-08-27T09:00:48.993Z,14.73
2022-08-27T09:03:17.105Z,15.10
2022-08-27T09:05:50.638Z,14.40
2022-08-27T09:08:41.346Z,13.13
2022-08-27T09:11:27.853Z,12.67
2022-08-27T09:14:14.381Z,12.82
2022-08-27T09:16:41.805Z,12.32
2022-08-27T09:19:13.102Z,11.88
2022-08-27T09:21:54.140Z,10.32
2022-08-27T09:24:40.614Z,10.35
2022-08-27T09:27:12.519Z,10.85
2022-08-27T09:29:56.783Z,14.18
2022-08-27T09:32:32.231Z,14.43
2022-08-27T09:35:03.242Z,13.40
2022-08-27T09:37:34.726Z,12.17
2022-08-27T09:42:49.679Z,11.27
2022-08-27T09:45:27.556Z,12.23
2022-08-27T09:48:02.814Z,10.98
2022-08-27T09:50:45.271Z,11.55
2022-08-27T09:53:47.786Z,12.13
2022-08-27T09:56:36.900Z,12.50
2022-08-27T09:59:10.482Z,13.73
2022-08-27T10:01:49.549Z,14.32
2022-08-27T10:04:23.869Z,13.10
2022-08-27T10:06:51.965Z,13.65
2022-08-27T10:09:39.284Z,12.68
2022-08-27T10:12:22.750Z,13.45
2022-08-27T10:15:01.193Z,12.43
2022-08-27T10:17:36.717Z,13.63
2022-08-27T10:20:29.632Z,12.35
2022-08-27T10:23:06.937Z,12.32
2022-08-27T10:26:03.458Z,11.70
2022-08-27T10:29:06.961Z,11.57
2022-08-27T10:32:09.711Z,11.13
2022-08-27T10:34:45.294Z,9.48
2022-08-27T10:37:31.659Z,9.05
2022-08-27T10:40:31.258Z,7.90
2022-08-27T10:43:01.456Z,7.60
2022-08-27T10:46:08.175Z,7.75
2022-08-27T10:48:41.175Z,6.90
2022-08-27T10:51:18.298Z,6.88
2022-08-27T10:54:09.387Z,6.95
2022-08-27T10:56:45.985Z,6.90
2022-08-27T10:59:32.327Z,6.45
2022-08-27T11:02:05.809Z,5.97
2022-08-27T11:04:41.899Z,6.40
2022-08-27T11:07:26.006Z,6.22
2022-08-27T11:09:57.188Z,6.80
2022-08-27T11:12:42.928Z,6.65
2022-08-27T11:15:21.080Z,6.28
2022-08-27T11:18:30.271Z,7.03
2022-08-27T11:21:22.316Z,6.38
2022-08-27T11:24:38.141Z,6.90
2022-08-27T11:27:08.593Z,6.85
2022-08-27T11:30:04.405Z,7.07
2022-08-27T11:33:01.064Z,6.53
2022-08-27T11:35:57.327Z,7.03
2022-08-27T11:38:53.986Z,7.13
2022-08-27T11:41:45.787Z,7.32
2022-08-27T11:46:45.960Z,7.50
2022-08-27T11:49:29.956Z,6.55
2022-08-27T11:52:08.261Z,6.57
2022-08-27T11:54:52.888Z,6.35
2022-08-27T11:57:32.818Z,7.43
2022-08-27T12:00:26.907Z,6.93
2022-08-27T12:02:59.410Z,6.50
2022-08-27T12:05:41.875Z,5.95
2022-08-27T12:08:24.223Z,6.20
2022-08-27T12:11:00.764Z,6.15
2022-08-27T12:13:38.687Z,6.05
2022-08-27T12:16:53.484Z,6.80
2022-08-27T12:19:31.186Z,6.45
2022-08-27T12:22:04.121Z,5.70
2022-08-27T12:24:55.833Z,6.05
2022-08-27T12:27:26.481Z,5.80
2022-08-27T12:30:15.590Z,6.03
2022-08-27T12:32:46.478Z,6.05
2022-08-27T12:35:48.674Z,6.25
2022-08-27T12:38:35.107Z,5.78
2022-08-27T12:41:09.036Z,5.55
2022-08-27T12:43:38.836Z,5.70
2022-08-27T12:46:16.297Z,5.93
2022-08-27T12:48:52.311Z,6.40
2022-08-27T12:51:26.046Z,5.30
2022-08-27T12:54:12.384Z,5.60
2022-08-27T12:56:51.526Z,5.10
2022-08-27T12:59:37.456Z,4.95
2022-08-27T13:02:30.055Z,5.03
2022-08-27T13:05:01.975Z,5.78
2022-08-27T13:07:37.916Z,5.22
2022-08-27T13:10:17.810Z,5.25
2022-08-27T13:12:47.459Z,5.50
2022-08-27T13:15:16.667Z,5.20
2022-08-27T13:17:46.663Z,5.93
2022-08-27T13:20:36.448Z,5.70
2022-08-27T13:23:03.964Z,5.40
2022-08-27T13:25:34.975Z,5.85
2022-08-27T13:28:19.252Z,5.57
2022-08-27T13:30:47.527Z,5.50
2022-08-27T13:33:33.472Z,5.55
2022-08-27T13:36:02.706Z,5.45
2022-08-27T13:38:36.255Z,5.60
2022-08-27T13:41:29.089Z,5.78
2022-08-27T13:43:59.573Z,5.78
2022-08-27T13:46:32.044Z,5.93
2022-08-27T13:49:00.638Z,5.88
2022-08-27T13:51:34.549Z,6.22
2022-08-27T13:54:16.132Z,5.70
2022-08-27T13:59:30.502Z,6.00
2022-08-27T14:02:00.201Z,5.77
2022-08-27T14:04:42.330Z,5.35
2022-08-27T14:07:33.737Z,5.55
2022-08-27T14:10:20.961Z,5.70
2022-08-27T14:13:01.052Z,5.80
2022-08-27T14:15:38.685Z,5.57
2022-08-27T14:18:32.173Z,5.47
2022-08-27T14:21:09.772Z,5.70
2022-08-27T14:23:37.461Z,5.80
2022-08-27T14:26:05.082Z,6.28
2022-08-27T14:28:33.161Z,5.90
2022-08-27T14:31:00.427Z,6.35
2022-08-27T14:33:28.085Z,5.38
2022-08-27T14:35:55.495Z,5.97
2022-08-27T14:38:26.943Z,6.20
2022-08-27T14:40:55.040Z,6.95
2022-08-27T14:43:22.902Z,7.43
2022-08-27T14:45:52.290Z,7.20
2022-08-27T14:48:28.938Z,7.38
2022-08-27T14:50:56.968Z,6.35
2022-08-27T14:53:24.791Z,6.70
2022-08-27T14:55:52.378Z,6.97
2022-08-27T14:58:20.570Z,7.80
2022-08-27T15:00:48.455Z,6.93
2022-08-27T15:03:15.766Z,6.88
2022-08-27T15:05:43.105Z,6.80
2022-08-27T15:08:13.353Z,5.97
2022-08-27T15:10:41.031Z,5.90
2022-08-27T15:13:11.330Z,5.55
2022-08-27T15:15:39.244Z,5.35
2022-08-27T15:18:06.993Z,5.13
2022-08-27T15:20:34.668Z,5.18
2022-08-27T15:23:02.205Z,5.50
2022-08-27T15:25:30.898Z,4.80
2022-08-27T15:27:58.303Z,5.90
2022-08-27T15:30:28.168Z,4.47
2022-08-27T15:32:56.003Z,5.20
2022-08-27T15:35:26.861Z,4.60
2022-08-27T15:37:56.702Z,5.17
2022-08-27T15:40:25.882Z,4.78
2022-08-27T15:42:58.121Z,4.60
2022-08-27T15:45:27.601Z,4.53
2022-08-27T15:47:56.345Z,4.90
2022-08-27T15:50:24.716Z,4.93
2022-08-27T15:52:57.947Z,5.63
2022-08-27T15:55:31.768Z,5.13
2022-08-27T15:58:00.151Z,5.85
2022-08-27T16:00:28.412Z,5.65
2022-08-27T16:02:56.443Z,6.63
2022-08-27T16:05:23.836Z,7.15
2022-08-27T16:07:51.213Z,7.03
2022-08-27T16:10:18.619Z,7.57
2022-08-27T16:12:46.374Z,8.35
2022-08-27T16:15:14.553Z,7.10
2022-08-27T16:17:42.732Z,6.90
2022-08-27T16:20:12.275Z,7.00
2022-08-27T16:22:39.906Z,6.90
2022-08-27T16:25:08.139Z,7.70
2022-08-27T16:27:37.515Z,6.18
2022-08-27T16:30:06.768Z,6.47
2022-08-27T16:32:34.397Z,7.30
2022-08-27T16:35:02.268Z,6.30
2022-08-27T16:37:29.734Z,6.18
2022-08-27T16:39:57.071Z,4.97
2022-08-27T16:42:24.602Z,4.53
2022-08-27T16:44:51.973Z,5.00
2022-08-27T16:47:19.393Z,18.67
2022-08-27T16:50:05.187Z,6.65
2022-08-27T16:52:32.408Z,4.60
2022-08-27T16:55:00.630Z,4.35
2022-08-27T16:57:28.264Z,4.15
2022-08-27T16:59:56.033Z,4.45
2022-08-27T17:02:30.919Z,4.72
2022-08-27T17:05:23.731Z,4.45
2022-08-27T17:07:49.301Z,4.70
2022-08-27T17:10:21.055Z,5.18
2022-08-27T17:12:48.822Z,4.83
2022-08-27T17:15:17.481Z,5.30
2022-08-27T17:17:45.659Z,5.82
2022-08-27T17:20:15.181Z,5.90
2022-08-27T17:22:43.503Z,6.10
2022-08-27T17:25:11.424Z,8.48
2022-08-27T17:27:38.830Z,8.35
2022-08-27T17:30:07.919Z,6.10
2022-08-27T17:32:38.380Z,6.53
2022-08-27T17:35:07.926Z,4.78
2022-08-27T17:37:35.538Z,5.68
2022-08-27T17:40:03.828Z,5.38
2022-08-27T17:42:31.614Z,6.10
2022-08-27T17:45:00.245Z,6.65
2022-08-27T17:47:27.994Z,5.95
2022-08-27T17:49:55.798Z,6.45
2022-08-27T17:52:23.221Z,6.22
2022-08-27T17:54:54.407Z,5.53
2022-08-27T17:57:26.232Z,5.50
2022-08-27T17:59:55.841Z,5.47
2022-08-27T18:02:29.177Z,5.40
2022-08-27T18:04:57.392Z,6.60
2022-08-27T18:07:24.935Z,5.80
2022-08-27T18:09:52.614Z,5.75
2022-08-27T18:12:23.524Z,6.18
2022-08-27T18:15:21.063Z,6.13
2022-08-27T18:17:53.514Z,6.65
2022-08-27T18:20:23.695Z,7.05
2022-08-27T18:22:52.859Z,7.60
2022-08-27T18:25:32.706Z,8.73
2022-08-27T18:28:07.488Z,8.45
2022-08-27T18:30:35.355Z,9.60
2022-08-27T18:33:02.826Z,9.65
2022-08-27T18:35:32.230Z,10.15
2022-08-27T18:37:59.694Z,9.90
2022-08-27T18:40:30.769Z,10.95
2022-08-27T18:42:58.703Z,11.07
2022-08-27T18:45:28.571Z,11.10
2022-08-27T18:47:58.676Z,10.23
2022-08-27T18:50:27.152Z,10.98
2022-08-27T18:52:56.810Z,10.77
2022-08-27T18:55:28.113Z,28.17
2022-08-27T18:57:55.708Z,12.82
2022-08-27T19:00:23.216Z,10.20
2022-08-27T19:02:52.661Z,10.23
2022-08-27T19:05:27.489Z,11.48
2022-08-27T19:07:56.695Z,10.68
2022-08-27T19:10:24.504Z,11.20
2022-08-27T19:12:51.932Z,11.00
2022-08-27T19:15:20.141Z,11.82
2022-08-27T19:17:51.174Z,11.82
2022-08-27T19:20:19.939Z,15.40
2022-08-27T19:22:47.839Z,13.70
2022-08-27T19:25:17.403Z,11.65
2022-08-27T19:27:45.961Z,13.88
2022-08-27T19:30:15.395Z,13.48
2022-08-27T19:32:43.139Z,14.70
2022-08-27T19:35:11.468Z,11.85
2022-08-27T19:37:43.703Z,11.43
2022-08-27T19:40:14.485Z,12.55
2022-08-27T19:42:42.125Z,11.75
2022-08-27T19:45:09.792Z,12.05
2022-08-27T19:47:37.664Z,11.57
2022-08-27T19:50:05.549Z,11.60
2022-08-27T19:52:32.789Z,12.57
2022-08-27T19:55:15.294Z,12.68
2022-08-27T19:57:43.860Z,11.80
2022-08-27T20:00:13.603Z,11.30
2022-08-27T20:02:40.847Z,11.70
2022-08-27T20:05:19.431Z,12.23
2022-08-27T20:07:52.486Z,12.02
2022-08-27T20:10:22.424Z,12.57
2022-08-27T20:12:50.257Z,12.55
2022-08-27T20:15:19.594Z,12.60
2022-08-27T20:17:48.108Z,12.35
2022-08-27T20:20:22.557Z,12.65
2022-08-27T20:22:50.228Z,12.60
2022-08-27T20:25:18.025Z,12.68
2022-08-27T20:27:45.641Z,13.45
2022-08-27T20:30:15.213Z,13.90
2022-08-27T20:32:43.232Z,13.30
2022-08-27T20:35:11.125Z,13.27
2022-08-27T20:37:42.221Z,13.35
2022-08-27T20:40:15.141Z,13.82
2022-08-27T20:42:42.553Z,13.55
2022-08-27T20:45:12.288Z,13.13
2022-08-27T20:47:41.771Z,13.18
2022-08-27T20:50:13.496Z,13.55
2022-08-27T20:52:41.923Z,13.55
2022-08-27T20:55:14.318Z,12.95
2022-08-27T20:58:04.399Z,13.38
2022-08-27T21:00:36.238Z,13.45
2022-08-27T21:03:03.924Z,14.25
2022-08-27T21:05:34.517Z,13.02
2022-08-27T21:08:06.395Z,13.05
2022-08-27T21:10:34.794Z,14.32
2022-08-27T21:13:05.170Z,15.13
2022-08-27T21:15:32.996Z,13.38
2022-08-27T21:18:00.417Z,13.95
2022-08-27T21:20:27.933Z,13.65
2022-08-27T21:22:57.818Z,15.35
2022-08-27T21:25:26.061Z,14.88
2022-08-27T21:27:54.921Z,13.82
2022-08-27T21:30:22.302Z,14.45
2022-08-27T21:32:49.532Z,14.82
2022-08-27T21:35:16.887Z,14.90
2022-08-27T21:37:44.175Z,15.18
2022-08-27T21:40:11.808Z,16.33
2022-08-27T21:42:39.139Z,16.63
2022-08-27T21:45:06.918Z,16.80
2022-08-27T21:47:34.345Z,16.13
2022-08-27T21:50:01.580Z,15.70
2022-08-27T21:52:29.060Z,15.70
2022-08-27T21:54:56.356Z,14.95
2022-08-27T21:57:23.829Z,15.90
2022-08-27T21:59:51.831Z,16.30
2022-08-27T22:02:40.335Z,14.38
2022-08-27T22:05:08.868Z,15.10
2022-08-27T22:07:36.448Z,16.17
2022-08-27T22:10:05.280Z,15.10
2022-08-27T22:12:32.716Z,14.52
2022-08-27T22:15:00.117Z,14.98
2022-08-27T22:17:27.607Z,15.40
2022-08-27T22:19:54.963Z,14.55
2022-08-27T22:22:22.298Z,15.15
2022-08-27T22:24:49.821Z,14.77
2022-08-27T22:27:19.523Z,15.55
2022-08-27T22:29:46.957Z,15.30
2022-08-27T22:32:14.434Z,15.13
2022-08-27T22:34:42.382Z,15.73
2022-08-27T22:37:10.336Z,15.88
2022-08-27T22:39:37.701Z,17.08
2022-08-27T22:42:05.646Z,16.27
2022-08-27T22:44:33.310Z,16.55
2022-08-27T22:47:00.769Z,17.17
2022-08-27T22:49:28.130Z,17.52
2022-08-27T22:51:55.379Z,16.98
2022-08-27T22:54:22.652Z,16.20
2022-08-27T22:56:50.100Z,16.92
2022-08-27T22:59:17.528Z,17.60
2022-08-27T23:01:44.728Z,20.00
2022-08-27T23:04:12.081Z,16.90
2022-08-27T23:06:40.326Z,17.10
2022-08-27T23:09:07.997Z,16.05
2022-08-27T23:11:36.504Z,16.20
2022-08-27T23:14:03.780Z,15.82
2022-08-27T23:16:31.939Z,16.13
2022-08-27T23:18:59.336Z,17.55
2022-08-27T23:21:26.980Z,17.83
2022-08-27T23:23:54.570Z,16.58
2022-08-27T23:26:40.571Z,18.65
2022-08-27T23:29:07.935Z,18.92
2022-08-27T23:31:35.270Z,18.10
2022-08-27T23:34:02.644Z,19.20
2022-08-27T23:36:31.381Z,18.83
2022-08-27T23:38:58.785Z,18.95
2022-08-27T23:41:27.578Z,18.00
2022-08-27T23:43:55.705Z,19.30
2022-08-27T23:46:23.296Z,17.30
2022-08-27T23:48:50.612Z,19.13
2022-08-27T23:51:17.973Z,18.40
2022-08-27T23:53:45.290Z,19.75
2022-08-27T23:56:12.486Z,18.83
2022-08-27T23:58:39.889Z,19.25
